createdAt,value
2018-09-19T00:00:06.037Z,8.10
2018-09-19T00:00:41.217Z,7.22
2018-09-19T00:01:16.577Z,7.10
2018-09-19T00:01:51.791Z,7.53
2018-09-19T00:02:26.969Z,7.67
2018-09-19T00:03:02.133Z,6.97
2018-09-19T00:03:37.318Z,7.42
2018-09-19T00:04:12.665Z,7.10
2018-09-19T00:04:47.986Z,7.33
2018-09-19T00:05:23.203Z,7.08
2018-09-19T00:05:58.520Z,7.05
2018-09-19T00:06:33.669Z,6.75
2018-09-19T00:07:08.816Z,6.42
2018-09-19T00:07:44.622Z,6.87
2018-09-19T00:08:19.901Z,6.62
2018-09-19T00:08:55.086Z,6.62
2018-09-19T00:09:30.279Z,6.35
2018-09-19T00:10:05.672Z,7.28
2018-09-19T00:10:41.036Z,6.83
2018-09-19T00:11:16.341Z,6.37
2018-09-19T00:11:51.562Z,6.65
2018-09-19T00:12:26.702Z,6.40
2018-09-19T00:13:01.878Z,6.85
2018-09-19T00:13:37.242Z,6.45
2018-09-19T00:14:12.562Z,5.87
2018-09-19T00:14:47.979Z,6.80
2018-09-19T00:15:23.200Z,7.15
2018-09-19T00:15:58.373Z,7.00
2018-09-19T00:16:33.765Z,6.17
2018-09-19T00:17:08.960Z,6.35
2018-09-19T00:17:44.371Z,6.85
2018-09-19T00:18:19.712Z,7.03
2018-09-19T00:18:54.888Z,6.75
2018-09-19T00:19:30.195Z,6.87
2018-09-19T00:20:05.756Z,6.67
2018-09-19T00:20:41.156Z,7.70
2018-09-19T00:21:16.519Z,6.83
2018-09-19T00:21:51.813Z,7.03
2018-09-19T00:22:27.136Z,6.45
2018-09-19T00:23:02.315Z,6.50
2018-09-19T00:23:37.537Z,6.35
2018-09-19T00:24:12.848Z,6.15
2018-09-19T00:24:48.340Z,6.72
2018-09-19T00:25:23.534Z,7.20
2018-09-19T00:25:58.694Z,6.58
2018-09-19T00:26:33.874Z,7.62
2018-09-19T00:27:09.051Z,6.35
2018-09-19T00:27:44.495Z,6.62
2018-09-19T00:28:20.132Z,6.65
2018-09-19T00:28:55.326Z,7.17
2018-09-19T00:29:30.516Z,6.62
2018-09-19T00:30:05.695Z,6.65
2018-09-19T00:30:40.965Z,6.25
2018-09-19T00:31:16.276Z,6.60
2018-09-19T00:31:51.459Z,6.83
2018-09-19T00:32:26.645Z,6.58
2018-09-19T00:33:01.998Z,6.62
2018-09-19T00:33:37.188Z,7.92
2018-09-19T00:34:12.486Z,6.92
2018-09-19T00:34:47.863Z,6.78
2018-09-19T00:35:22.967Z,6.90
2018-09-19T00:35:58.145Z,7.05
2018-09-19T00:36:33.399Z,6.30
2018-09-19T00:37:08.563Z,6.50
2018-09-19T00:37:44.138Z,6.80
2018-09-19T00:38:19.447Z,6.67
2018-09-19T00:38:54.975Z,6.75
2018-09-19T00:39:30.138Z,6.92
2018-09-19T00:40:05.359Z,6.40
2018-09-19T00:40:40.939Z,6.58
2018-09-19T00:41:16.308Z,6.80
2018-09-19T00:41:51.600Z,7.12
2018-09-19T00:42:26.957Z,7.17
2018-09-19T00:43:02.163Z,7.60
2018-09-19T00:43:37.368Z,6.42
2018-09-19T00:44:12.975Z,7.08
2018-09-19T00:44:48.272Z,6.45
2018-09-19T00:45:23.472Z,6.92
2018-09-19T00:45:58.689Z,6.90
2018-09-19T00:46:33.861Z,7.10
2018-09-19T00:47:09.042Z,6.75
2018-09-19T00:47:44.411Z,7.25
2018-09-19T00:48:19.925Z,6.83
2018-09-19T00:48:55.153Z,6.55
2018-09-19T00:49:30.321Z,6.40
2018-09-19T00:50:05.687Z,6.28
2018-09-19T00:50:41.143Z,6.85
2018-09-19T00:51:16.415Z,6.70
2018-09-19T00:51:51.629Z,7.17
2018-09-19T00:52:27.101Z,6.72
2018-09-19T00:53:02.282Z,6.60
2018-09-19T00:53:37.499Z,6.83
2018-09-19T00:54:13.300Z,6.55
2018-09-19T00:54:48.616Z,6.70
2018-09-19T00:55:23.788Z,6.58
2018-09-19T00:55:59.032Z,6.67
2018-09-19T00:56:34.366Z,6.28
2018-09-19T00:57:09.580Z,6.83
2018-09-19T00:57:45.290Z,6.83
2018-09-19T00:58:20.647Z,6.85
2018-09-19T00:58:55.834Z,6.95
2018-09-19T00:59:31.078Z,6.08
2018-09-19T01:00:06.780Z,6.45
2018-09-19T01:00:42.270Z,6.97
2018-09-19T01:01:17.812Z,6.05
2018-09-19T01:01:53.027Z,6.75
2018-09-19T01:02:28.202Z,7.37
2018-09-19T01:03:03.358Z,7.30
2018-09-19T01:03:38.916Z,6.97
2018-09-19T01:04:14.548Z,6.47
2018-09-19T01:04:50.047Z,6.80
2018-09-19T01:05:25.268Z,7.20
2018-09-19T01:06:00.433Z,7.30
2018-09-19T01:06:35.603Z,6.85
2018-09-19T01:07:10.764Z,7.20
2018-09-19T01:07:46.421Z,7.05
2018-09-19T01:08:21.681Z,7.10
2018-09-19T01:09:38.162Z,6.70
2018-09-19T01:10:14.067Z,7.65
2018-09-19T01:10:49.642Z,7.30
2018-09-19T01:11:24.838Z,7.10
2018-09-19T01:11:59.990Z,6.60
2018-09-19T01:12:35.144Z,6.40
2018-09-19T01:13:10.389Z,6.83
2018-09-19T01:13:45.718Z,6.83
2018-09-19T01:14:21.011Z,6.75
2018-09-19T01:14:56.206Z,6.50
2018-09-19T01:15:31.349Z,6.95
2018-09-19T01:16:07.259Z,7.10
2018-09-19T01:16:42.710Z,6.85
2018-09-19T01:17:20.288Z,6.80
2018-09-19T01:17:55.646Z,6.92
2018-09-19T01:18:32.116Z,6.95
2018-09-19T01:19:07.517Z,7.50
2018-09-19T01:19:43.173Z,7.03
2018-09-19T01:20:19.537Z,6.87
2018-09-19T01:20:54.869Z,6.83
2018-09-19T01:21:30.057Z,7.37
2018-09-19T01:22:05.294Z,6.22
2018-09-19T01:22:40.557Z,6.53
2018-09-19T01:23:15.972Z,6.42
2018-09-19T01:23:51.432Z,7.12
2018-09-19T01:24:26.683Z,6.97
2018-09-19T01:25:02.041Z,7.42
2018-09-19T01:25:37.696Z,6.75
2018-09-19T01:26:13.572Z,7.25
2018-09-19T01:26:49.131Z,6.50
2018-09-19T01:27:25.575Z,6.62
2018-09-19T01:28:01.197Z,7.20
2018-09-19T01:28:36.511Z,6.95
2018-09-19T01:29:12.806Z,6.53
2018-09-19T01:29:49.061Z,7.28
2018-09-19T01:30:24.575Z,6.58
2018-09-19T01:30:59.906Z,6.62
2018-09-19T01:31:35.441Z,7.12
2018-09-19T01:32:11.013Z,6.87
2018-09-19T01:32:47.071Z,6.67
2018-09-19T01:33:23.630Z,6.90
2018-09-19T01:33:59.196Z,7.45
2018-09-19T01:34:34.893Z,6.75
2018-09-19T01:35:11.191Z,6.55
2018-09-19T01:35:46.957Z,6.90
2018-09-19T01:36:22.439Z,6.50
2018-09-19T01:36:57.961Z,7.00
2018-09-19T01:37:33.608Z,6.83
2018-09-19T01:38:09.651Z,6.55
2018-09-19T01:38:45.302Z,6.78
2018-09-19T01:39:20.886Z,6.83
2018-09-19T01:39:56.332Z,7.20
2018-09-19T01:40:31.812Z,6.90
2018-09-19T01:41:08.332Z,6.97
2018-09-19T01:41:43.808Z,6.95
2018-09-19T01:42:19.415Z,6.75
2018-09-19T01:42:55.754Z,6.70
2018-09-19T01:43:31.369Z,7.45
2018-09-19T01:44:06.709Z,6.40
2018-09-19T01:44:42.035Z,6.53
2018-09-19T01:45:17.995Z,6.87
2018-09-19T01:45:53.309Z,6.70
2018-09-19T01:46:28.542Z,7.12
2018-09-19T01:47:05.953Z,6.85
2018-09-19T01:47:41.298Z,6.37
2018-09-19T01:48:17.162Z,7.08
2018-09-19T01:48:52.443Z,6.72
2018-09-19T01:49:27.743Z,6.70
2018-09-19T01:50:03.139Z,6.47
2018-09-19T01:50:39.712Z,7.17
2018-09-19T01:51:16.329Z,7.08
2018-09-19T01:51:54.395Z,6.50
2018-09-19T01:52:29.680Z,7.08
2018-09-19T01:53:05.490Z,6.85
2018-09-19T01:53:41.247Z,6.95
2018-09-19T01:54:16.708Z,6.83
2018-09-19T01:54:52.008Z,6.40
2018-09-19T01:55:27.191Z,7.03
2018-09-19T01:56:02.503Z,6.40
2018-09-19T01:56:37.658Z,6.22
2018-09-19T01:57:12.954Z,6.50
2018-09-19T01:57:48.304Z,7.42
2018-09-19T01:58:23.526Z,7.40
2018-09-19T01:58:58.708Z,7.80
2018-09-19T01:59:34.011Z,7.50
2018-09-19T02:00:09.421Z,7.70
2018-09-19T02:00:44.712Z,6.80
2018-09-19T02:01:20.010Z,6.83
2018-09-19T02:01:55.201Z,6.42
2018-09-19T02:02:30.561Z,6.22
2018-09-19T02:03:05.817Z,6.67
2018-09-19T02:03:41.024Z,6.60
2018-09-19T02:04:16.576Z,6.90
2018-09-19T02:04:51.818Z,6.37
2018-09-19T02:05:27.520Z,6.90
2018-09-19T02:06:02.205Z,6.53
2018-09-19T02:06:37.488Z,7.20
2018-09-19T02:07:12.890Z,6.97
2018-09-19T02:07:48.154Z,6.55
2018-09-19T02:08:23.326Z,6.80
2018-09-19T02:08:58.535Z,6.62
2018-09-19T02:09:33.722Z,7.08
2018-09-19T02:10:09.080Z,6.10
2018-09-19T02:10:44.560Z,6.85
2018-09-19T02:11:20.039Z,6.83
2018-09-19T02:11:55.217Z,6.72
2018-09-19T02:12:30.377Z,6.65
2018-09-19T02:13:05.545Z,6.53
2018-09-19T02:13:40.743Z,6.30
2018-09-19T02:14:16.148Z,6.35
2018-09-19T02:14:51.387Z,6.15
2018-09-19T02:15:26.562Z,6.53
2018-09-19T02:16:01.736Z,6.40
2018-09-19T02:16:37.353Z,5.85
2018-09-19T02:17:12.709Z,6.83
2018-09-19T02:17:48.035Z,7.08
2018-09-19T02:18:23.224Z,6.72
2018-09-19T02:18:58.386Z,6.83
2018-09-19T02:19:33.540Z,6.42
2018-09-19T02:20:08.723Z,6.67
2018-09-19T02:20:44.030Z,6.37
2018-09-19T02:21:19.388Z,6.22
2018-09-19T02:21:54.604Z,5.97
2018-09-19T02:22:30.313Z,6.42
2018-09-19T02:23:05.678Z,6.25
2018-09-19T02:23:40.905Z,6.45
2018-09-19T02:24:16.201Z,6.33
2018-09-19T02:24:51.411Z,6.80
2018-09-19T02:25:26.582Z,6.20
2018-09-19T02:26:01.776Z,6.42
2018-09-19T02:26:36.958Z,6.62
2018-09-19T02:27:12.308Z,6.65
2018-09-19T02:27:47.749Z,6.60
2018-09-19T02:28:23.352Z,6.65
2018-09-19T02:28:58.743Z,6.83
2018-09-19T02:29:34.279Z,6.80
2018-09-19T02:30:09.561Z,6.58
2018-09-19T02:30:45.007Z,6.30
2018-09-19T02:31:20.295Z,6.37
2018-09-19T02:31:55.478Z,6.47
2018-09-19T02:32:30.658Z,6.50
2018-09-19T02:33:06.028Z,6.60
2018-09-19T02:33:41.234Z,6.55
2018-09-19T02:34:16.593Z,6.47
2018-09-19T02:34:51.823Z,6.80
2018-09-19T02:35:27.017Z,6.90
2018-09-19T02:36:02.445Z,7.33
2018-09-19T02:36:37.615Z,7.05
2018-09-19T02:37:13.043Z,6.87
2018-09-19T02:37:48.618Z,7.00
2018-09-19T02:38:23.802Z,7.00
2018-09-19T02:38:59.223Z,6.97
2018-09-19T02:39:34.397Z,6.33
2018-09-19T02:40:09.635Z,7.22
2018-09-19T02:40:45.065Z,7.40
2018-09-19T02:41:20.780Z,6.87
2018-09-19T02:41:55.972Z,7.17
2018-09-19T02:42:31.127Z,7.10
2018-09-19T02:43:06.399Z,6.95
2018-09-19T02:43:41.691Z,7.28
2018-09-19T02:44:17.498Z,6.60
2018-09-19T02:44:52.725Z,6.53
2018-09-19T02:45:27.942Z,6.75
2018-09-19T02:46:03.221Z,6.85
2018-09-19T02:46:38.535Z,6.35
2018-09-19T02:47:13.892Z,7.00
2018-09-19T02:47:49.218Z,6.42
2018-09-19T02:48:24.413Z,7.03
2018-09-19T02:48:59.638Z,6.75
2018-09-19T02:49:34.813Z,6.83
2018-09-19T02:50:10.046Z,7.28
2018-09-19T02:50:45.583Z,6.67
2018-09-19T02:51:20.803Z,7.12
2018-09-19T02:51:58.193Z,7.37
2018-09-19T02:52:33.378Z,7.22
2018-09-19T02:53:08.785Z,7.12
2018-09-19T02:53:45.059Z,7.72
2018-09-19T02:54:20.338Z,7.30
2018-09-19T02:54:55.507Z,6.83
2018-09-19T02:55:30.681Z,6.62
2018-09-19T02:56:06.272Z,7.35
2018-09-19T02:56:42.114Z,7.58
2018-09-19T02:57:17.364Z,7.10
2018-09-19T02:57:52.605Z,7.33
2018-09-19T02:58:27.891Z,6.45
2018-09-19T02:59:03.092Z,6.70
2018-09-19T02:59:38.466Z,7.20
2018-09-19T03:00:14.003Z,6.80
2018-09-19T03:00:49.275Z,6.33
2018-09-19T03:01:24.597Z,7.40
2018-09-19T03:02:00.299Z,6.80
2018-09-19T03:02:35.466Z,6.42
2018-09-19T03:03:10.660Z,7.65
2018-09-19T03:03:46.346Z,7.00
2018-09-19T03:04:21.519Z,6.75
2018-09-19T03:04:56.914Z,6.92
2018-09-19T03:05:32.306Z,7.58
2018-09-19T03:06:07.509Z,7.67
2018-09-19T03:06:42.902Z,7.22
2018-09-19T03:07:18.326Z,6.65
2018-09-19T03:07:53.542Z,7.22
2018-09-19T03:08:29.074Z,7.40
2018-09-19T03:09:04.810Z,7.10
2018-09-19T03:09:40.098Z,7.30
2018-09-19T03:10:15.625Z,6.78
2018-09-19T03:10:50.837Z,6.90
2018-09-19T03:11:26.021Z,6.47
2018-09-19T03:12:01.226Z,7.28
2018-09-19T03:12:36.530Z,7.17
2018-09-19T03:13:11.241Z,7.10
2018-09-19T03:13:46.767Z,7.40
2018-09-19T03:14:22.487Z,7.17
2018-09-19T03:14:57.750Z,7.08
2018-09-19T03:15:32.956Z,7.42
2018-09-19T03:16:08.147Z,7.47
2018-09-19T03:16:43.522Z,7.12
2018-09-19T03:17:18.790Z,7.33
2018-09-19T03:17:54.244Z,7.08
2018-09-19T03:18:29.410Z,7.53
2018-09-19T03:19:04.607Z,7.22
2018-09-19T03:19:39.800Z,7.22
2018-09-19T03:20:15.070Z,7.53
2018-09-19T03:20:50.773Z,7.28
2018-09-19T03:21:25.994Z,7.12
2018-09-19T03:22:01.279Z,7.20
2018-09-19T03:22:36.449Z,7.25
2018-09-19T03:23:11.719Z,7.10
2018-09-19T03:23:47.018Z,6.60
2018-09-19T03:24:22.269Z,6.97
2018-09-19T03:24:57.470Z,7.33
2018-09-19T03:25:32.686Z,7.65
2018-09-19T03:26:08.077Z,8.45
2018-09-19T03:26:43.540Z,7.30
2018-09-19T03:27:18.875Z,7.55
2018-09-19T03:27:54.029Z,8.23
2018-09-19T03:28:29.262Z,8.28
2018-09-19T03:29:04.510Z,7.87
2018-09-19T03:29:39.719Z,7.28
2018-09-19T03:30:15.372Z,7.60
2018-09-19T03:30:50.684Z,8.35
2018-09-19T03:31:26.049Z,7.22
2018-09-19T03:32:01.285Z,7.70
2018-09-19T03:32:36.664Z,7.20
2018-09-19T03:33:11.436Z,8.83
2018-09-19T03:33:47.057Z,7.72
2018-09-19T03:34:22.547Z,8.43
2018-09-19T03:34:57.690Z,8.43
2018-09-19T03:35:33.404Z,7.67
2018-09-19T03:36:08.755Z,7.65
2018-09-19T03:36:44.235Z,6.90
2018-09-19T03:37:19.630Z,7.20
2018-09-19T03:37:55.123Z,8.18
2018-09-19T03:38:30.351Z,7.95
2018-09-19T03:39:08.255Z,7.75
2018-09-19T03:39:43.679Z,8.48
2018-09-19T03:40:18.967Z,7.30
2018-09-19T03:40:54.172Z,6.53
2018-09-19T03:41:29.452Z,7.35
2018-09-19T03:42:04.671Z,8.10
2018-09-19T03:42:39.854Z,7.05
2018-09-19T03:43:15.136Z,7.55
2018-09-19T03:43:50.459Z,7.33
2018-09-19T03:44:25.699Z,7.37
2018-09-19T03:45:00.914Z,7.62
2018-09-19T03:45:36.081Z,7.12
2018-09-19T03:46:11.302Z,6.53
2018-09-19T03:46:46.762Z,7.17
2018-09-19T03:47:22.062Z,7.50
2018-09-19T03:47:57.246Z,7.12
2018-09-19T03:48:32.459Z,7.10
2018-09-19T03:49:08.577Z,6.90
2018-09-19T03:49:43.938Z,6.78
2018-09-19T03:50:19.273Z,9.15
2018-09-19T03:50:54.472Z,8.30
2018-09-19T03:51:29.655Z,7.20
2018-09-19T03:52:04.377Z,8.55
2018-09-19T03:52:39.573Z,6.78
2018-09-19T03:53:14.902Z,7.78
2018-09-19T03:53:50.130Z,7.33
2018-09-19T03:54:25.363Z,8.38
2018-09-19T03:55:00.575Z,7.58
2018-09-19T03:55:35.772Z,8.20
2018-09-19T03:56:11.489Z,7.40
2018-09-19T03:56:46.762Z,6.53
2018-09-19T03:57:22.047Z,9.13
2018-09-19T03:57:57.236Z,7.20
2018-09-19T03:58:32.604Z,7.33
2018-09-19T03:59:07.973Z,7.97
2018-09-19T03:59:43.279Z,7.60
2018-09-19T04:00:18.664Z,7.87
2018-09-19T04:00:53.862Z,7.40
2018-09-19T04:01:29.067Z,7.55
2018-09-19T04:02:04.957Z,7.20
2018-09-19T04:02:40.568Z,7.15
2018-09-19T04:03:15.849Z,7.60
2018-09-19T04:03:51.140Z,6.87
2018-09-19T04:04:26.531Z,7.12
2018-09-19T04:05:01.677Z,7.33
2018-09-19T04:05:36.830Z,7.10
2018-09-19T04:06:12.435Z,7.60
2018-09-19T04:06:47.724Z,7.50
2018-09-19T04:07:22.954Z,7.05
2018-09-19T04:07:58.129Z,7.70
2018-09-19T04:08:32.827Z,7.00
2018-09-19T04:09:12.555Z,7.03
2018-09-19T04:09:47.974Z,6.55
2018-09-19T04:10:23.197Z,6.67
2018-09-19T04:10:58.431Z,7.75
2018-09-19T04:11:33.597Z,7.25
2018-09-19T04:12:08.807Z,7.17
2018-09-19T04:12:44.122Z,7.47
2018-09-19T04:13:19.378Z,7.22
2018-09-19T04:13:54.580Z,7.10
2018-09-19T04:14:29.749Z,8.28
2018-09-19T04:15:05.097Z,7.45
2018-09-19T04:15:40.268Z,8.13
2018-09-19T04:16:15.596Z,8.15
2018-09-19T04:16:50.840Z,7.17
2018-09-19T04:17:26.028Z,8.15
2018-09-19T04:18:01.273Z,6.85
2018-09-19T04:18:36.447Z,8.35
2018-09-19T04:19:11.676Z,7.70
2018-09-19T04:19:47.211Z,7.00
2018-09-19T04:20:22.415Z,8.00
2018-09-19T04:20:57.585Z,7.70
2018-09-19T04:21:33.123Z,7.95
2018-09-19T04:22:08.340Z,7.40
2018-09-19T04:22:43.646Z,7.72
2018-09-19T04:23:18.879Z,8.03
2018-09-19T04:23:54.039Z,7.78
2018-09-19T04:24:29.240Z,7.33
2018-09-19T04:25:04.853Z,7.05
2018-09-19T04:25:40.044Z,12.15
2018-09-19T04:26:15.088Z,8.10
2018-09-19T04:26:50.136Z,7.97
2018-09-19T04:27:24.877Z,7.55
2018-09-19T04:28:00.073Z,8.40
2018-09-19T04:28:35.258Z,9.10
2018-09-19T04:29:10.558Z,13.58
2018-09-19T04:29:45.828Z,7.85
2018-09-19T04:30:21.141Z,7.97
2018-09-19T04:30:56.346Z,7.15
2018-09-19T04:31:31.542Z,8.33
2018-09-19T04:32:07.005Z,7.67
2018-09-19T04:32:42.525Z,8.33
2018-09-19T04:33:17.919Z,7.83
2018-09-19T04:33:53.119Z,7.65
2018-09-19T04:34:28.327Z,9.03
2018-09-19T04:35:03.946Z,9.20
2018-09-19T04:35:39.111Z,8.28
2018-09-19T04:36:14.402Z,8.13
2018-09-19T04:36:50.070Z,8.18
2018-09-19T04:37:25.281Z,7.83
2018-09-19T04:38:00.432Z,7.90
2018-09-19T04:38:35.741Z,8.10
2018-09-19T04:39:12.413Z,7.83
2018-09-19T04:39:47.715Z,10.18
2018-09-19T04:40:22.970Z,10.25
2018-09-19T04:40:58.145Z,7.83
2018-09-19T04:41:33.388Z,7.28
2018-09-19T04:42:08.078Z,7.85
2018-09-19T04:42:43.644Z,9.30
2018-09-19T04:43:18.925Z,9.50
2018-09-19T04:43:54.130Z,8.60
2018-09-19T04:44:29.312Z,8.23
2018-09-19T04:45:04.590Z,8.08
2018-09-19T04:45:39.905Z,7.92
2018-09-19T04:46:15.261Z,7.33
2018-09-19T04:46:50.645Z,7.40
2018-09-19T04:47:25.861Z,7.50
2018-09-19T04:48:01.059Z,7.90
2018-09-19T04:48:36.390Z,8.83
2018-09-19T04:49:11.713Z,9.03
2018-09-19T04:49:46.988Z,8.03
2018-09-19T04:50:22.202Z,8.08
2018-09-19T04:50:57.356Z,7.60
2018-09-19T04:51:32.670Z,7.97
2018-09-19T04:52:08.187Z,7.97
2018-09-19T04:52:43.541Z,10.50
2018-09-19T04:53:18.947Z,9.28
2018-09-19T04:53:54.186Z,8.48
2018-09-19T04:54:29.571Z,11.40
2018-09-19T04:55:06.182Z,8.05
2018-09-19T04:55:41.412Z,8.43
2018-09-19T04:56:16.737Z,8.28
2018-09-19T04:56:52.214Z,7.97
2018-09-19T04:57:27.428Z,7.97
2018-09-19T04:58:02.591Z,7.87
2018-09-19T04:58:37.988Z,7.80
2018-09-19T04:59:13.768Z,8.25
2018-09-19T04:59:49.586Z,7.97
2018-09-19T05:00:24.831Z,8.60
2018-09-19T05:01:00.003Z,8.53
2018-09-19T05:01:35.390Z,8.23
2018-09-19T05:02:10.705Z,8.43
2018-09-19T05:02:46.075Z,8.15
2018-09-19T05:03:21.289Z,8.48
2018-09-19T05:03:56.510Z,8.58
2018-09-19T05:04:31.717Z,9.23
2018-09-19T05:05:06.971Z,8.63
2018-09-19T05:05:42.396Z,8.35
2018-09-19T05:06:18.015Z,9.18
2018-09-19T05:06:53.213Z,8.85
2018-09-19T05:07:28.442Z,8.10
2018-09-19T05:08:03.820Z,7.65
2018-09-19T05:08:39.008Z,8.20
2018-09-19T05:09:14.333Z,8.23
2018-09-19T05:09:49.772Z,8.95
2018-09-19T05:10:25.111Z,9.38
2018-09-19T05:11:00.300Z,8.30
2018-09-19T05:11:35.731Z,8.78
2018-09-19T05:12:11.012Z,8.93
2018-09-19T05:12:46.324Z,8.60
2018-09-19T05:13:21.593Z,8.33
2018-09-19T05:13:56.769Z,9.00
2018-09-19T05:14:31.971Z,8.65
2018-09-19T05:15:07.162Z,8.08
2018-09-19T05:15:42.567Z,8.90
2018-09-19T05:16:18.126Z,8.95
2018-09-19T05:16:53.384Z,8.35
2018-09-19T05:17:28.620Z,9.18
2018-09-19T05:18:04.007Z,8.78
2018-09-19T05:18:39.194Z,8.53
2018-09-19T05:19:14.557Z,8.63
2018-09-19T05:19:49.948Z,8.28
2018-09-19T05:20:25.546Z,9.20
2018-09-19T05:21:00.720Z,9.10
2018-09-19T05:21:35.920Z,8.53
2018-09-19T05:22:11.767Z,8.75
2018-09-19T05:22:47.217Z,8.75
2018-09-19T05:23:22.534Z,8.70
2018-09-19T05:23:57.802Z,8.38
2018-09-19T05:24:32.978Z,8.65
2018-09-19T05:25:08.209Z,8.38
2018-09-19T05:25:43.583Z,7.92
2018-09-19T05:26:19.346Z,7.75
2018-09-19T05:26:54.880Z,8.28
2018-09-19T05:27:30.101Z,8.28
2018-09-19T05:28:05.287Z,8.58
2018-09-19T05:28:41.568Z,9.25
2018-09-19T05:29:16.846Z,8.13
2018-09-19T05:29:52.266Z,9.08
2018-09-19T05:30:27.574Z,9.03
2018-09-19T05:31:02.801Z,9.10
2018-09-19T05:31:37.988Z,7.75
2018-09-19T05:32:13.533Z,8.53
2018-09-19T05:32:48.892Z,8.73
2018-09-19T05:33:24.119Z,8.80
2018-09-19T05:33:59.328Z,8.30
2018-09-19T05:34:34.513Z,7.83
2018-09-19T05:35:09.732Z,8.30
2018-09-19T05:35:45.292Z,8.35
2018-09-19T05:36:20.561Z,8.60
2018-09-19T05:36:55.766Z,7.92
2018-09-19T05:37:30.935Z,8.05
2018-09-19T05:38:06.152Z,8.80
2018-09-19T05:38:42.082Z,8.18
2018-09-19T05:39:17.419Z,8.08
2018-09-19T05:39:52.771Z,8.25
2018-09-19T05:40:27.939Z,8.50
2018-09-19T05:41:03.266Z,7.90
2018-09-19T05:41:38.433Z,8.48
2018-09-19T05:42:13.895Z,8.20
2018-09-19T05:42:49.309Z,8.50
2018-09-19T05:43:24.522Z,8.48
2018-09-19T05:43:59.732Z,9.00
2018-09-19T05:44:34.941Z,8.05
2018-09-19T05:45:10.189Z,7.60
2018-09-19T05:45:45.793Z,8.15
2018-09-19T05:46:21.271Z,8.05
2018-09-19T05:46:56.707Z,7.50
2018-09-19T05:47:31.894Z,8.10
2018-09-19T05:48:07.300Z,8.53
2018-09-19T05:48:42.916Z,7.22
2018-09-19T05:49:18.459Z,7.60
2018-09-19T05:49:53.760Z,8.25
2018-09-19T05:50:28.990Z,7.70
2018-09-19T05:51:04.624Z,7.65
2018-09-19T05:51:39.798Z,7.28
2018-09-19T05:52:15.160Z,7.72
2018-09-19T05:52:50.632Z,7.90
2018-09-19T05:53:25.842Z,7.33
2018-09-19T05:54:01.195Z,7.87
2018-09-19T05:54:36.419Z,7.87
2018-09-19T05:55:11.887Z,7.58
2018-09-19T05:55:47.335Z,8.13
2018-09-19T05:56:22.696Z,7.55
2018-09-19T05:56:57.894Z,8.43
2018-09-19T05:57:33.115Z,8.00
2018-09-19T05:58:08.326Z,8.55
2018-09-19T05:58:43.707Z,8.40
2018-09-19T05:59:19.329Z,8.48
2018-09-19T05:59:54.712Z,8.03
2018-09-19T06:00:29.927Z,8.45
2018-09-19T06:01:05.149Z,7.87
2018-09-19T06:01:40.388Z,8.10
2018-09-19T06:02:16.080Z,7.15
2018-09-19T06:02:51.469Z,8.08
2018-09-19T06:03:26.644Z,7.83
2018-09-19T06:04:01.988Z,8.03
2018-09-19T06:04:37.166Z,8.38
2018-09-19T06:05:13.045Z,8.60
2018-09-19T06:05:48.488Z,8.03
2018-09-19T06:06:24.160Z,7.87
2018-09-19T06:06:59.476Z,8.60
2018-09-19T06:07:34.663Z,8.18
2018-09-19T06:08:09.853Z,8.70
2018-09-19T06:08:48.492Z,8.05
2018-09-19T06:09:24.023Z,7.22
2018-09-19T06:09:59.210Z,7.87
2018-09-19T06:10:34.578Z,7.45
2018-09-19T06:11:09.970Z,7.83
2018-09-19T06:11:45.459Z,7.80
2018-09-19T06:12:21.185Z,7.47
2018-09-19T06:12:56.779Z,7.40
2018-09-19T06:13:32.131Z,7.70
2018-09-19T06:14:07.664Z,9.43
2018-09-19T06:14:43.038Z,7.42
2018-09-19T06:15:18.406Z,7.47
2018-09-19T06:15:53.806Z,7.58
2018-09-19T06:16:29.000Z,7.22
2018-09-19T06:17:04.214Z,7.10
2018-09-19T06:17:39.450Z,8.10
2018-09-19T06:18:15.113Z,8.88
2018-09-19T06:18:50.700Z,8.43
2018-09-19T06:19:29.661Z,8.08
2018-09-19T06:20:07.331Z,8.10
2018-09-19T06:20:48.966Z,7.55
2018-09-19T06:21:24.850Z,7.85
2018-09-19T06:22:00.001Z,7.58
2018-09-19T06:22:35.186Z,7.92
2018-09-19T06:23:10.426Z,8.30
2018-09-19T06:23:46.321Z,8.08
2018-09-19T06:24:21.935Z,7.55
2018-09-19T06:24:57.238Z,7.47
2018-09-19T06:25:32.592Z,8.28
2018-09-19T06:26:08.463Z,7.92
2018-09-19T06:26:43.803Z,7.37
2018-09-19T06:27:19.064Z,7.95
2018-09-19T06:27:54.277Z,7.72
2018-09-19T06:28:29.471Z,7.97
2018-09-19T06:29:04.636Z,7.75
2018-09-19T06:29:39.351Z,7.87
2018-09-19T06:30:14.948Z,7.80
2018-09-19T06:30:50.564Z,7.83
2018-09-19T06:31:26.054Z,7.05
2018-09-19T06:32:01.238Z,8.03
2018-09-19T06:32:36.465Z,7.10
2018-09-19T06:33:12.013Z,8.13
2018-09-19T06:33:47.419Z,8.53
2018-09-19T06:34:22.788Z,8.10
2018-09-19T06:34:58.102Z,8.05
2018-09-19T06:35:33.277Z,8.25
2018-09-19T06:36:08.477Z,10.08
2018-09-19T06:36:43.885Z,7.78
2018-09-19T06:37:19.163Z,8.35
2018-09-19T06:37:54.452Z,7.75
2018-09-19T06:38:29.674Z,7.20
2018-09-19T06:39:06.238Z,7.90
2018-09-19T06:39:41.732Z,7.85
2018-09-19T06:40:17.040Z,8.23
2018-09-19T06:40:53.086Z,7.78
2018-09-19T06:41:28.402Z,8.10
2018-09-19T06:42:03.619Z,8.93
2018-09-19T06:42:38.798Z,8.20
2018-09-19T06:43:14.166Z,9.30
2018-09-19T06:43:49.517Z,7.87
2018-09-19T06:44:24.731Z,7.40
2018-09-19T06:44:59.951Z,7.60
2018-09-19T06:45:35.192Z,8.03
2018-09-19T06:46:11.552Z,7.58
2018-09-19T06:46:47.537Z,7.72
2018-09-19T06:47:23.495Z,6.95
2018-09-19T06:47:58.694Z,7.03
2018-09-19T06:48:33.883Z,7.40
2018-09-19T06:49:09.158Z,7.78
2018-09-19T06:49:44.568Z,7.87
2018-09-19T06:50:20.010Z,8.98
2018-09-19T06:50:55.385Z,7.72
2018-09-19T06:51:30.575Z,7.55
2018-09-19T06:52:05.882Z,7.80
2018-09-19T06:52:41.530Z,7.75
2018-09-19T06:53:16.817Z,7.40
2018-09-19T06:53:52.104Z,8.13
2018-09-19T06:54:27.306Z,7.40
2018-09-19T06:55:02.521Z,7.47
2018-09-19T06:55:37.892Z,7.45
2018-09-19T06:56:13.948Z,7.30
2018-09-19T06:56:49.436Z,7.50
2018-09-19T06:57:24.787Z,7.33
2018-09-19T06:58:00.168Z,8.03
2018-09-19T06:58:35.404Z,7.37
2018-09-19T06:59:11.621Z,7.75
2018-09-19T06:59:47.048Z,8.78
2018-09-19T07:00:22.375Z,7.55
2018-09-19T07:00:57.611Z,6.90
2018-09-19T07:01:32.772Z,7.28
2018-09-19T07:02:07.974Z,10.23
2018-09-19T07:02:43.710Z,7.40
2018-09-19T07:03:19.119Z,7.58
2018-09-19T07:03:54.433Z,7.17
2018-09-19T07:04:29.682Z,7.45
2018-09-19T07:05:05.318Z,8.03
2018-09-19T07:05:40.501Z,7.15
2018-09-19T07:06:16.118Z,7.72
2018-09-19T07:06:51.448Z,8.13
2018-09-19T07:07:26.666Z,7.03
2018-09-19T07:08:01.847Z,7.40
2018-09-19T07:08:37.040Z,7.37
2018-09-19T07:09:12.563Z,7.10
2018-09-19T07:09:48.222Z,7.33
2018-09-19T07:10:23.588Z,6.85
2018-09-19T07:10:58.964Z,7.67
2018-09-19T07:11:34.320Z,7.60
2018-09-19T07:12:09.542Z,7.10
2018-09-19T07:12:44.930Z,7.40
2018-09-19T07:13:20.423Z,7.83
2018-09-19T07:13:55.639Z,6.95
2018-09-19T07:14:30.970Z,7.33
2018-09-19T07:15:06.215Z,6.75
2018-09-19T07:15:41.485Z,7.37
2018-09-19T07:16:17.274Z,7.60
2018-09-19T07:16:52.617Z,7.33
2018-09-19T07:17:27.809Z,7.50
2018-09-19T07:18:02.998Z,6.90
2018-09-19T07:18:38.271Z,7.15
2018-09-19T07:19:13.584Z,6.53
2018-09-19T07:19:49.348Z,6.70
2018-09-19T07:20:24.849Z,6.47
2018-09-19T07:21:00.054Z,6.60
2018-09-19T07:21:35.740Z,7.42
2018-09-19T07:22:11.288Z,7.10
2018-09-19T07:22:46.567Z,6.70
2018-09-19T07:23:21.900Z,7.08
2018-09-19T07:23:57.321Z,6.67
2018-09-19T07:24:32.654Z,6.97
2018-09-19T07:25:08.264Z,7.60
2018-09-19T07:25:44.023Z,6.80
2018-09-19T07:26:20.163Z,6.55
2018-09-19T07:26:55.418Z,6.92
2018-09-19T07:27:30.765Z,6.90
2018-09-19T07:28:06.063Z,6.87
2018-09-19T07:28:41.287Z,6.70
2018-09-19T07:29:17.011Z,5.90
2018-09-19T07:29:52.367Z,6.62
2018-09-19T07:30:27.790Z,6.80
2018-09-19T07:31:03.009Z,6.72
2018-09-19T07:31:38.366Z,6.50
2018-09-19T07:32:13.966Z,6.90
2018-09-19T07:32:49.419Z,6.22
2018-09-19T07:33:24.751Z,6.72
2018-09-19T07:33:59.960Z,6.40
2018-09-19T07:34:35.222Z,6.65
2018-09-19T07:35:10.466Z,6.37
2018-09-19T07:35:45.805Z,6.78
2018-09-19T07:36:21.345Z,6.20
2018-09-19T07:36:56.859Z,7.37
2018-09-19T07:37:32.050Z,6.60
2018-09-19T07:38:07.229Z,6.85
2018-09-19T07:38:42.575Z,6.42
2018-09-19T07:39:18.140Z,6.42
2018-09-19T07:39:53.475Z,6.33
2018-09-19T07:40:28.730Z,6.50
2018-09-19T07:41:04.048Z,5.83
2018-09-19T07:41:39.261Z,7.00
2018-09-19T07:42:14.624Z,5.65
2018-09-19T07:42:49.922Z,6.45
2018-09-19T07:43:25.173Z,5.85
2018-09-19T07:44:00.344Z,5.87
2018-09-19T07:44:36.067Z,6.15
2018-09-19T07:45:11.287Z,5.87
2018-09-19T07:45:46.873Z,5.85
2018-09-19T07:46:22.640Z,5.83
2018-09-19T07:46:58.437Z,7.12
2018-09-19T07:47:33.912Z,6.33
2018-09-19T07:48:09.320Z,6.37
2018-09-19T07:48:44.672Z,7.30
2018-09-19T07:49:20.194Z,6.40
2018-09-19T07:49:55.427Z,6.03
2018-09-19T07:50:30.664Z,6.55
2018-09-19T07:51:06.230Z,7.05
2018-09-19T07:51:41.663Z,6.45